createdAt,value
2022-09-23T00:01:18.086Z,9.00
2022-09-23T00:03:48.687Z,9.06
2022-09-23T00:06:24.313Z,9.10
2022-09-23T00:08:52.607Z,9.12
2022-09-23T00:11:24.299Z,9.14
2022-09-23T00:13:57.108Z,9.17
2022-09-23T00:16:32.712Z,9.19
2022-09-23T00:19:04.278Z,9.19
2022-09-23T00:21:31.288Z,9.18
2022-09-23T00:23:58.785Z,9.15
2022-09-23T00:26:25.876Z,9.13
2022-09-23T00:28:53.216Z,9.11
2022-09-23T00:31:24.667Z,9.11
2022-09-23T00:34:01.788Z,9.13
2022-09-23T00:36:30.414Z,9.11
2022-09-23T00:38:57.891Z,9.10
2022-09-23T00:41:26.843Z,9.08
2022-09-23T00:43:58.990Z,9.04
2022-09-23T00:46:42.175Z,8.98
2022-09-23T00:49:23.615Z,8.94
2022-09-23T00:52:09.883Z,8.88
2022-09-23T00:54:37.906Z,8.85
2022-09-23T00:57:06.040Z,8.84
2022-09-23T00:59:34.884Z,8.85
2022-09-23T01:02:02.926Z,8.84
2022-09-23T01:04:30.549Z,8.84
2022-09-23T01:06:57.578Z,8.84
2022-09-23T01:09:25.375Z,8.84
2022-09-23T01:12:20.007Z,8.86
2022-09-23T01:15:18.552Z,8.88
2022-09-23T01:18:07.391Z,8.85
2022-09-23T01:20:59.336Z,8.83
2022-09-23T01:24:11.529Z,8.79
2022-09-23T01:27:22.090Z,8.76
2022-09-23T01:30:40.985Z,8.72
2022-09-23T01:33:24.247Z,8.73
2022-09-23T01:36:30.820Z,8.72
2022-09-23T01:39:16.954Z,8.69
2022-09-23T01:42:13.828Z,8.68
2022-09-23T01:44:53.075Z,8.65
2022-09-23T01:47:39.798Z,8.68
2022-09-23T01:50:35.239Z,8.64
2022-09-23T01:53:14.668Z,8.63
2022-09-23T01:55:50.415Z,8.59
2022-09-23T01:58:29.208Z,8.54
2022-09-23T02:01:05.044Z,8.48
2022-09-23T02:03:52.259Z,8.39
2022-09-23T02:06:32.135Z,8.28
2022-09-23T02:09:13.940Z,8.22
2022-09-23T02:11:48.096Z,8.17
2022-09-23T02:14:33.339Z,8.12
2022-09-23T02:17:13.041Z,8.09
2022-09-23T02:19:50.663Z,8.05
2022-09-23T02:22:26.487Z,8.00
2022-09-23T02:24:57.462Z,7.98
2022-09-23T02:27:35.151Z,7.96
2022-09-23T02:30:22.601Z,7.96
2022-09-23T02:33:46.309Z,7.94
2022-09-23T02:36:21.686Z,7.88
2022-09-23T02:38:59.150Z,7.83
2022-09-23T02:41:42.656Z,7.83
2022-09-23T02:44:16.677Z,7.84
2022-09-23T02:46:44.318Z,7.84
2022-09-23T02:49:29.503Z,7.82
2022-09-23T02:52:04.849Z,7.84
2022-09-23T02:54:33.717Z,7.85
2022-09-23T02:57:06.499Z,7.87
2022-09-23T02:59:37.089Z,7.86
2022-09-23T03:02:55.951Z,7.87
2022-09-23T03:05:31.585Z,7.90
2022-09-23T03:08:39.945Z,7.87
2022-09-23T03:11:16.996Z,7.89
2022-09-23T03:14:16.917Z,7.89
2022-09-23T03:16:56.744Z,7.88
2022-09-23T03:19:41.399Z,7.87
2022-09-23T03:22:21.335Z,7.85
2022-09-23T03:24:54.059Z,7.83
2022-09-23T03:27:29.931Z,7.83
2022-09-23T03:29:58.495Z,7.79
2022-09-23T03:32:29.250Z,7.77
2022-09-23T03:35:01.587Z,7.74
2022-09-23T03:37:44.749Z,7.74
2022-09-23T03:40:31.965Z,7.72
2022-09-23T03:43:02.555Z,7.71
2022-09-23T03:45:34.385Z,7.71
2022-09-23T03:48:01.868Z,7.69
2022-09-23T03:50:29.428Z,7.67
2022-09-23T03:52:56.727Z,7.66
2022-09-23T03:55:23.834Z,7.61
2022-09-23T03:57:50.896Z,7.61
2022-09-23T04:00:19.000Z,7.60
2022-09-23T04:02:46.012Z,7.58
2022-09-23T04:05:14.126Z,7.53
2022-09-23T04:07:44.501Z,7.51
2022-09-23T04:10:11.753Z,7.50
2022-09-23T04:12:38.723Z,7.47
2022-09-23T04:15:06.714Z,7.46
2022-09-23T04:17:34.727Z,7.44
2022-09-23T04:20:02.563Z,7.40
2022-09-23T04:22:29.689Z,7.36
2022-09-23T04:24:56.991Z,7.31
2022-09-23T04:27:24.017Z,7.28
2022-09-23T04:29:51.029Z,7.29
2022-09-23T04:32:18.063Z,7.24
2022-09-23T04:34:45.777Z,7.22
2022-09-23T04:37:12.857Z,7.20
2022-09-23T04:39:39.838Z,7.19
2022-09-23T04:42:07.122Z,7.19
2022-09-23T04:44:34.895Z,7.18
2022-09-23T04:47:02.625Z,7.15
2022-09-23T04:49:33.641Z,7.15
2022-09-23T04:52:01.722Z,7.14
2022-09-23T04:54:29.081Z,7.18
2022-09-23T04:57:03.125Z,7.31
2022-09-23T04:59:32.080Z,7.51
2022-09-23T05:02:01.226Z,7.55
2022-09-23T05:04:28.229Z,7.51
2022-09-23T05:06:57.439Z,7.46
2022-09-23T05:09:26.396Z,7.41
2022-09-23T05:11:53.528Z,7.38
2022-09-23T05:14:20.654Z,7.37
2022-09-23T05:16:47.608Z,7.36
2022-09-23T05:19:15.435Z,7.35
2022-09-23T05:21:42.346Z,7.37
2022-09-23T05:24:10.112Z,7.37
2022-09-23T05:26:37.076Z,7.38
2022-09-23T05:29:05.013Z,7.39
2022-09-23T05:31:32.007Z,7.42
2022-09-23T05:34:03.456Z,7.43
2022-09-23T05:36:37.872Z,7.43
2022-09-23T05:39:30.711Z,7.43
2022-09-23T05:41:59.987Z,7.45
2022-09-23T05:44:26.977Z,7.48
2022-09-23T05:46:54.078Z,7.50
2022-09-23T05:49:29.558Z,7.54
2022-09-23T05:52:04.792Z,7.59
2022-09-23T05:54:31.714Z,7.64
2022-09-23T05:57:00.323Z,7.69
2022-09-23T05:59:29.780Z,7.76
2022-09-23T06:01:56.937Z,7.85
2022-09-23T06:04:23.856Z,7.93
2022-09-23T06:06:50.724Z,8.00
2022-09-23T06:09:17.708Z,8.09
2022-09-23T06:11:44.793Z,8.16
2022-09-23T06:14:14.700Z,8.26
2022-09-23T06:16:43.003Z,8.35
2022-09-23T06:19:10.448Z,8.43
2022-09-23T06:21:40.339Z,8.49
2022-09-23T06:24:14.205Z,8.57
2022-09-23T06:26:42.688Z,8.63
2022-09-23T06:29:11.830Z,8.69
2022-09-23T06:31:40.686Z,8.78
2022-09-23T06:34:13.523Z,8.88
2022-09-23T06:36:45.524Z,8.97
2022-09-23T06:39:16.510Z,9.05
2022-09-23T06:41:45.427Z,9.14
2022-09-23T06:44:14.360Z,9.21
2022-09-23T06:46:41.636Z,9.29
2022-09-23T06:49:08.657Z,9.36
2022-09-23T06:51:35.638Z,9.44
2022-09-23T06:54:02.741Z,9.52
2022-09-23T06:56:31.574Z,9.60
2022-09-23T06:59:01.732Z,9.66
2022-09-23T07:01:28.753Z,9.73
2022-09-23T07:03:55.796Z,9.81
2022-09-23T07:06:22.990Z,9.88
2022-09-23T07:08:51.120Z,9.97
2022-09-23T07:11:22.282Z,10.04
2022-09-23T07:13:49.708Z,10.11
2022-09-23T07:16:16.691Z,10.19
2022-09-23T07:18:45.627Z,10.30
2022-09-23T07:21:19.305Z,10.40
2022-09-23T07:23:50.086Z,10.49
2022-09-23T07:26:19.165Z,10.60
2022-09-23T07:28:46.563Z,10.69
2022-09-23T07:31:26.076Z,10.77
2022-09-23T07:33:58.121Z,10.84
2022-09-23T07:36:27.912Z,10.94
2022-09-23T07:39:00.561Z,11.04
2022-09-23T07:41:28.942Z,11.12
2022-09-23T07:43:58.993Z,11.23
2022-09-23T07:46:33.909Z,11.34
2022-09-23T07:49:03.181Z,11.47
2022-09-23T07:51:37.205Z,11.63
2022-09-23T07:54:14.364Z,11.81
2022-09-23T07:56:42.656Z,11.95
2022-09-23T07:59:18.102Z,12.09
2022-09-23T08:01:52.616Z,12.22
2022-09-23T08:04:30.821Z,12.35
2022-09-23T08:07:04.764Z,12.50
2022-09-23T08:09:41.242Z,12.63
2022-09-23T08:12:17.554Z,12.75
2022-09-23T08:14:44.844Z,12.88
2022-09-23T08:17:14.470Z,12.96
2022-09-23T08:19:41.615Z,12.99
2022-09-23T08:22:08.599Z,13.04
2022-09-23T08:24:35.686Z,13.12
2022-09-23T08:27:02.699Z,13.15
2022-09-23T08:29:29.871Z,13.21
2022-09-23T08:31:57.031Z,13.26
2022-09-23T08:34:28.068Z,13.34
2022-09-23T08:36:55.079Z,13.41
2022-09-23T08:39:23.085Z,13.46
2022-09-23T08:42:01.995Z,13.51
2022-09-23T08:44:42.777Z,13.63
2022-09-23T08:47:23.314Z,13.73
2022-09-23T08:49:57.256Z,13.81
2022-09-23T08:52:31.900Z,13.83
2022-09-23T08:55:01.825Z,13.81
2022-09-23T08:58:23.312Z,13.88
2022-09-23T09:00:54.201Z,13.89
2022-09-23T09:03:29.724Z,13.96
2022-09-23T09:05:58.889Z,14.03
2022-09-23T09:08:35.116Z,14.09
2022-09-23T09:11:03.505Z,14.18
2022-09-23T09:13:47.416Z,14.27
2022-09-23T09:16:58.486Z,14.34
2022-09-23T09:19:55.291Z,14.43
2022-09-23T09:22:54.980Z,14.56
2022-09-23T09:25:37.092Z,14.70
2022-09-23T09:28:17.379Z,14.82
2022-09-23T09:30:48.849Z,14.88
2022-09-23T09:33:23.860Z,14.95
2022-09-23T09:36:09.006Z,15.01
2022-09-23T09:38:37.070Z,15.12
2022-09-23T09:41:18.163Z,15.26
2022-09-23T09:43:53.424Z,15.35
2022-09-23T09:47:28.349Z,15.50
2022-09-23T09:50:11.817Z,15.69
2022-09-23T09:52:40.902Z,15.81
2022-09-23T09:55:13.866Z,15.92
2022-09-23T09:58:00.120Z,15.96
2022-09-23T10:00:27.631Z,16.05
2022-09-23T10:03:14.099Z,16.10
2022-09-23T10:05:44.816Z,16.21
2022-09-23T10:08:38.998Z,16.32
2022-09-23T10:11:18.906Z,16.46
2022-09-23T10:14:09.913Z,16.63
2022-09-23T10:16:37.296Z,16.78
2022-09-23T10:19:27.852Z,16.96
2022-09-23T10:22:00.180Z,17.08
2022-09-23T10:24:36.623Z,17.15
2022-09-23T10:27:11.952Z,17.22
2022-09-23T10:29:47.824Z,17.26
2022-09-23T10:32:32.357Z,17.28
2022-09-23T10:35:13.321Z,17.33
2022-09-23T10:37:49.327Z,17.46
2022-09-23T10:40:57.637Z,17.60
2022-09-23T10:44:49.238Z,17.68
2022-09-23T10:47:36.801Z,17.77
2022-09-23T10:50:19.960Z,17.83
2022-09-23T10:53:18.233Z,17.93
2022-09-23T10:56:34.257Z,17.96
2022-09-23T10:59:21.603Z,18.02
2022-09-23T11:02:06.584Z,18.01
2022-09-23T11:04:55.238Z,18.04
2022-09-23T11:08:02.392Z,18.09
2022-09-23T11:11:03.902Z,18.17
2022-09-23T11:13:55.629Z,18.23
2022-09-23T11:16:50.893Z,18.25
2022-09-23T11:19:50.863Z,18.29
2022-09-23T11:22:53.247Z,18.29
2022-09-23T11:25:42.171Z,18.31
2022-09-23T11:28:21.935Z,18.35
2022-09-23T11:31:10.158Z,18.40
2022-09-23T11:34:26.040Z,18.43
2022-09-23T11:37:05.167Z,18.42
2022-09-23T11:39:51.349Z,18.41
2022-09-23T11:42:26.162Z,18.38
2022-09-23T11:45:14.991Z,18.46
2022-09-23T11:48:21.891Z,18.57
2022-09-23T11:51:25.725Z,18.69
2022-09-23T11:54:20.922Z,18.83
2022-09-23T11:57:01.278Z,18.89
2022-09-23T11:59:55.126Z,18.96
2022-09-23T12:02:40.639Z,19.04
2022-09-23T12:05:22.715Z,19.07
2022-09-23T12:08:17.928Z,19.06
2022-09-23T12:10:57.997Z,19.00
2022-09-23T12:13:39.279Z,19.06
2022-09-23T12:16:59.146Z,19.19
2022-09-23T12:19:38.565Z,19.28
2022-09-23T12:22:24.756Z,19.45
2022-09-23T12:25:10.330Z,19.59
2022-09-23T12:27:46.619Z,19.69
2022-09-23T12:30:19.028Z,19.76
2022-09-23T12:32:47.151Z,19.85
2022-09-23T12:35:41.841Z,19.94
2022-09-23T12:38:33.597Z,19.96
2022-09-23T12:41:01.537Z,20.00
2022-09-23T12:43:34.491Z,20.08
2022-09-23T12:46:27.245Z,20.11
2022-09-23T12:49:03.146Z,20.17
2022-09-23T12:51:36.267Z,20.29
2022-09-23T12:54:15.243Z,20.24
2022-09-23T12:56:59.600Z,20.10
2022-09-23T12:59:29.771Z,19.99
2022-09-23T13:02:26.257Z,19.94
2022-09-23T13:05:28.152Z,19.90
2022-09-23T13:08:08.251Z,19.86
2022-09-23T13:10:46.048Z,19.83
2022-09-23T13:13:27.529Z,19.77
2022-09-23T13:15:55.163Z,19.72
2022-09-23T13:18:22.123Z,19.71
2022-09-23T13:20:54.911Z,19.71
2022-09-23T13:23:31.322Z,19.69
2022-09-23T13:26:12.596Z,19.69
2022-09-23T13:28:55.791Z,19.69
2022-09-23T13:31:23.131Z,19.68
2022-09-23T13:34:04.286Z,19.69
2022-09-23T13:36:45.148Z,19.68
2022-09-23T13:39:26.099Z,19.64
2022-09-23T13:42:02.975Z,19.69
2022-09-23T13:44:30.829Z,19.73
2022-09-23T13:47:03.261Z,19.80
2022-09-23T13:49:36.431Z,19.93
2022-09-23T13:52:04.124Z,20.03
2022-09-23T13:54:37.818Z,20.10
2022-09-23T13:57:05.906Z,20.14
2022-09-23T13:59:42.369Z,20.16
2022-09-23T14:02:20.303Z,20.16
2022-09-23T14:04:47.436Z,20.13
2022-09-23T14:07:19.174Z,20.04
2022-09-23T14:09:52.280Z,19.95
2022-09-23T14:12:22.203Z,19.87
2022-09-23T14:14:53.108Z,19.78
2022-09-23T14:17:25.661Z,19.73
2022-09-23T14:19:52.785Z,19.64
2022-09-23T14:22:30.395Z,19.54
2022-09-23T14:24:59.044Z,19.44
2022-09-23T14:27:33.448Z,19.36
2022-09-23T14:30:03.502Z,19.27
2022-09-23T14:32:32.252Z,19.16
2022-09-23T14:35:05.417Z,19.08
2022-09-23T14:37:56.697Z,19.02
2022-09-23T14:40:31.817Z,18.95
2022-09-23T14:43:06.297Z,18.87
2022-09-23T14:45:40.618Z,18.80
2022-09-23T14:48:16.381Z,18.74
2022-09-23T14:51:07.656Z,18.68
2022-09-23T14:53:52.563Z,18.61
2022-09-23T14:56:22.992Z,18.58
2022-09-23T14:59:00.631Z,18.57
2022-09-23T15:01:31.446Z,18.56
2022-09-23T15:04:17.478Z,18.55
2022-09-23T15:06:58.496Z,18.54
2022-09-23T15:09:39.397Z,18.49
2022-09-23T15:12:14.640Z,18.46
2022-09-23T15:14:49.412Z,18.45
2022-09-23T15:17:34.648Z,18.46
2022-09-23T15:20:20.304Z,18.45
2022-09-23T15:22:54.059Z,18.42
2022-09-23T15:25:31.121Z,18.40
2022-09-23T15:28:00.891Z,18.36
2022-09-23T15:30:28.677Z,18.33
2022-09-23T15:32:56.056Z,18.30
2022-09-23T15:35:26.612Z,18.28
2022-09-23T15:37:58.820Z,18.29
2022-09-23T15:40:32.652Z,18.29
2022-09-23T15:43:20.930Z,18.28
2022-09-23T15:45:57.133Z,18.27
2022-09-23T15:48:39.333Z,18.25
2022-09-23T15:51:09.752Z,18.22
2022-09-23T15:53:38.800Z,18.19
2022-09-23T15:56:13.308Z,18.15
2022-09-23T15:58:40.293Z,18.09
2022-09-23T16:01:25.224Z,18.02
2022-09-23T16:03:52.383Z,17.95
2022-09-23T16:06:20.277Z,17.88
2022-09-23T16:08:48.921Z,17.80
2022-09-23T16:11:25.747Z,17.74
2022-09-23T16:13:54.857Z,17.65
2022-09-23T16:16:22.056Z,17.58
2022-09-23T16:18:51.389Z,17.52
2022-09-23T16:21:23.924Z,17.49
2022-09-23T16:23:53.386Z,17.43
2022-09-23T16:26:29.578Z,17.36
2022-09-23T16:28:58.956Z,17.31
2022-09-23T16:31:31.414Z,17.25
2022-09-23T16:34:02.105Z,17.18
2022-09-23T16:36:39.241Z,17.14
2022-09-23T16:39:11.458Z,17.07
2022-09-23T16:41:38.645Z,17.02
2022-09-23T16:44:09.302Z,16.98
2022-09-23T16:46:36.755Z,16.94
2022-09-23T16:49:04.954Z,16.88
2022-09-23T16:51:40.419Z,16.85
2022-09-23T16:54:13.216Z,16.80
2022-09-23T16:56:45.215Z,16.74
2022-09-23T16:59:14.517Z,16.72
2022-09-23T17:02:00.871Z,16.71
2022-09-23T17:04:28.274Z,16.67
2022-09-23T17:06:56.041Z,16.64
2022-09-23T17:09:32.197Z,16.61
2022-09-23T17:12:13.743Z,16.57
2022-09-23T17:14:41.750Z,16.54
2022-09-23T17:17:09.759Z,16.51
2022-09-23T17:19:38.412Z,16.49
2022-09-23T17:22:05.388Z,16.45
2022-09-23T17:24:32.480Z,16.43
2022-09-23T17:26:59.483Z,16.39
2022-09-23T17:29:26.909Z,16.38
2022-09-23T17:31:54.370Z,16.35
2022-09-23T17:34:21.639Z,16.32
2022-09-23T17:36:49.609Z,16.27
2022-09-23T17:39:17.544Z,16.21
2022-09-23T17:41:45.672Z,16.18
2022-09-23T17:44:14.375Z,16.11
2022-09-23T17:46:42.106Z,16.04
2022-09-23T17:49:10.001Z,15.97
2022-09-23T17:51:37.284Z,15.90
2022-09-23T17:54:04.414Z,15.83
2022-09-23T17:56:31.475Z,15.77
2022-09-23T17:59:02.291Z,15.70
2022-09-23T18:01:29.910Z,15.65
2022-09-23T18:04:00.608Z,15.61
2022-09-23T18:06:33.630Z,15.56
2022-09-23T18:09:04.159Z,15.50
2022-09-23T18:11:36.024Z,15.42
2022-09-23T18:14:13.019Z,15.33
2022-09-23T18:16:42.074Z,15.28
2022-09-23T18:19:14.771Z,15.21
2022-09-23T18:21:52.062Z,15.14
2022-09-23T18:24:35.072Z,15.07
2022-09-23T18:27:02.273Z,15.02
2022-09-23T18:29:29.739Z,14.98
2022-09-23T18:31:56.881Z,14.96
2022-09-23T18:34:25.489Z,14.92
2022-09-23T18:36:55.933Z,14.89
2022-09-23T18:39:23.061Z,14.86
2022-09-23T18:41:50.298Z,14.85
2022-09-23T18:44:17.845Z,14.84
2022-09-23T18:46:44.854Z,14.81
2022-09-23T18:49:31.036Z,14.78
2022-09-23T18:51:58.784Z,14.73
2022-09-23T18:54:28.856Z,14.72
2022-09-23T18:56:56.774Z,14.70
2022-09-23T18:59:28.930Z,14.71
2022-09-23T19:01:57.389Z,14.70
2022-09-23T19:04:27.289Z,14.70
2022-09-23T19:06:56.594Z,14.69
2022-09-23T19:09:24.528Z,14.68
2022-09-23T19:11:52.652Z,14.68
2022-09-23T19:14:20.262Z,14.67
2022-09-23T19:16:51.013Z,14.67
2022-09-23T19:19:18.152Z,14.67
2022-09-23T19:21:45.307Z,14.66
2022-09-23T19:24:15.752Z,14.65
2022-09-23T19:26:44.028Z,14.65
2022-09-23T19:29:16.680Z,14.63
2022-09-23T19:31:44.145Z,14.59
2022-09-23T19:34:17.707Z,14.58
2022-09-23T19:36:47.192Z,14.57
2022-09-23T19:39:23.460Z,14.54
2022-09-23T19:41:52.706Z,14.54
2022-09-23T19:44:20.215Z,14.49
2022-09-23T19:46:55.040Z,14.47
2022-09-23T19:49:24.571Z,14.44
2022-09-23T19:51:55.123Z,14.41
2022-09-23T19:54:22.373Z,14.38
2022-09-23T19:56:49.916Z,14.34
2022-09-23T19:59:19.185Z,14.31
2022-09-23T20:01:48.019Z,14.26
2022-09-23T20:04:16.798Z,14.23
2022-09-23T20:06:45.827Z,14.22
2022-09-23T20:09:12.960Z,14.21
2022-09-23T20:11:42.829Z,14.20
2022-09-23T20:14:10.842Z,14.20
2022-09-23T20:16:37.974Z,14.17
2022-09-23T20:19:05.922Z,14.16
2022-09-23T20:21:33.819Z,14.12
2022-09-23T20:24:04.394Z,14.13
2022-09-23T20:26:50.268Z,14.11
2022-09-23T20:29:17.388Z,14.09
2022-09-23T20:31:44.510Z,14.09
2022-09-23T20:34:12.268Z,14.10
2022-09-23T20:36:41.606Z,14.13
2022-09-23T20:39:10.319Z,14.13
2022-09-23T20:41:39.272Z,14.13
2022-09-23T20:44:12.933Z,14.14
2022-09-23T20:46:48.240Z,14.14
2022-09-23T20:49:17.764Z,14.14
2022-09-23T20:51:47.589Z,14.14
2022-09-23T20:54:21.067Z,14.13
2022-09-23T20:56:48.226Z,14.13
2022-09-23T20:59:17.532Z,14.10
2022-09-23T21:01:45.353Z,14.09
2022-09-23T21:04:12.461Z,14.07
2022-09-23T21:06:39.752Z,14.06
2022-09-23T21:09:07.208Z,14.04
2022-09-23T21:11:35.226Z,14.01
2022-09-23T21:14:02.681Z,13.98
2022-09-23T21:16:30.542Z,13.97
2022-09-23T21:18:58.324Z,13.94
2022-09-23T21:21:26.198Z,13.93
2022-09-23T21:23:56.458Z,13.93
2022-09-23T21:26:28.178Z,13.92
2022-09-23T21:29:00.797Z,13.92
2022-09-23T21:31:35.885Z,13.93
2022-09-23T21:34:09.238Z,13.90
2022-09-23T21:36:46.266Z,13.90
2022-09-23T21:39:13.436Z,13.89
2022-09-23T21:41:40.506Z,13.89
2022-09-23T21:44:08.554Z,13.89
2022-09-23T21:46:37.010Z,13.91
2022-09-23T21:49:05.278Z,13.91
2022-09-23T21:51:40.781Z,13.92
2022-09-23T21:54:15.625Z,13.93
2022-09-23T21:56:44.715Z,13.93
2022-09-23T21:59:12.375Z,13.94
2022-09-23T22:01:44.858Z,13.93
2022-09-23T22:04:18.835Z,13.96
2022-09-23T22:06:46.690Z,13.95
2022-09-23T22:09:18.251Z,13.95
2022-09-23T22:12:04.872Z,13.95
2022-09-23T22:14:31.913Z,13.95
2022-09-23T22:17:02.701Z,13.95
2022-09-23T22:19:35.568Z,13.95
2022-09-23T22:22:09.713Z,13.94
2022-09-23T22:24:36.770Z,13.94
2022-09-23T22:27:07.371Z,13.91
2022-09-23T22:29:53.312Z,13.91
2022-09-23T22:32:36.061Z,13.90
2022-09-23T22:35:05.111Z,13.90
2022-09-23T22:37:34.744Z,13.87
2022-09-23T22:40:15.260Z,13.86
2022-09-23T22:42:43.608Z,13.85
2022-09-23T22:45:13.570Z,13.84
2022-09-23T22:47:44.954Z,13.82
2022-09-23T22:50:14.190Z,13.79
2022-09-23T22:52:41.403Z,13.80
2022-09-23T22:55:14.399Z,13.78
2022-09-23T22:57:41.546Z,13.77
2022-09-23T23:00:09.938Z,13.74
2022-09-23T23:02:36.978Z,13.74
2022-09-23T23:05:04.263Z,13.70
2022-09-23T23:07:32.083Z,13.67
2022-09-23T23:09:59.057Z,13.66
2022-09-23T23:12:26.069Z,13.65
2022-09-23T23:14:53.109Z,13.62
2022-09-23T23:17:20.144Z,13.57
2022-09-23T23:19:47.444Z,13.55
2022-09-23T23:22:14.498Z,13.51
2022-09-23T23:24:41.564Z,13.46
2022-09-23T23:27:09.659Z,13.43
2022-09-23T23:29:36.676Z,13.39
2022-09-23T23:32:05.926Z,13.35
2022-09-23T23:34:32.870Z,13.30
2022-09-23T23:37:00.248Z,13.26
2022-09-23T23:39:27.454Z,13.26
2022-09-23T23:41:57.212Z,13.24
2022-09-23T23:44:26.518Z,13.25
2022-09-23T23:46:54.849Z,13.24
2022-09-23T23:49:22.300Z,13.23
2022-09-23T23:51:49.601Z,13.22
2022-09-23T23:54:17.788Z,13.22
2022-09-23T23:56:45.141Z,13.20
2022-09-23T23:59:12.597Z,13.17
